sensor_id;sensor_type;location;lat;lon;timestamp;P1;durP1;ratioP1;P2;durP2;ratioP2
67747;SDS011;54543;50.712;6.070;2024-02-15T00:02:13;6.07;;;3.80;;
67747;SDS011;54543;50.712;6.070;2024-02-15T00:04:38;7.45;;;4.28;;
67747;SDS011;54543;50.712;6.070;2024-02-15T00:07:04;6.10;;;4.25;;
67747;SDS011;54543;50.712;6.070;2024-02-15T00:09:30;6.15;;;3.70;;
67747;SDS011;54543;50.712;6.070;2024-02-15T00:11:56;7.38;;;4.57;;
67747;SDS011;54543;50.712;6.070;2024-02-15T00:14:22;6.97;;;3.65;;
67747;SDS011;54543;50.712;6.070;2024-02-15T00:16:48;6.03;;;3.83;;
67747;SDS011;54543;50.712;6.070;2024-02-15T00:19:13;5.88;;;3.70;;
67747;SDS011;54543;50.712;6.070;2024-02-15T00:21:45;6.32;;;3.80;;
67747;SDS011;54543;50.712;6.070;2024-02-15T00:24:11;5.18;;;3.70;;
67747;SDS011;54543;50.712;6.070;2024-02-15T00:26:36;6.03;;;3.20;;
67747;SDS011;54543;50.712;6.070;2024-02-15T00:29:02;4.90;;;2.72;;
67747;SDS011;54543;50.712;6.070;2024-02-15T00:31:28;5.28;;;3.20;;
67747;SDS011;54543;50.712;6.070;2024-02-15T00:33:54;6.18;;;2.97;;
67747;SDS011;54543;50.712;6.070;2024-02-15T00:36:20;5.72;;;3.38;;
67747;SDS011;54543;50.712;6.070;2024-02-15T00:38:45;6.30;;;3.88;;
67747;SDS011;54543;50.712;6.070;2024-02-15T00:41:11;7.13;;;3.75;;
67747;SDS011;54543;50.712;6.070;2024-02-15T00:43:37;5.43;;;3.35;;
67747;SDS011;54543;50.712;6.070;2024-02-15T00:46:03;6.68;;;3.20;;
67747;SDS011;54543;50.712;6.070;2024-02-15T00:48:28;7.65;;;3.00;;
67747;SDS011;54543;50.712;6.070;2024-02-15T00:50:55;4.22;;;2.60;;
67747;SDS011;54543;50.712;6.070;2024-02-15T00:53:21;7.57;;;2.95;;
67747;SDS011;54543;50.712;6.070;2024-02-15T00:55:47;6.55;;;2.58;;
67747;SDS011;54543;50.712;6.070;2024-02-15T00:58:12;4.32;;;2.75;;
67747;SDS011;54543;50.712;6.070;2024-02-15T01:00:38;5.97;;;3.08;;
67747;SDS011;54543;50.712;6.070;2024-02-15T01:03:04;6.10;;;3.17;;
67747;SDS011;54543;50.712;6.070;2024-02-15T01:05:29;4.60;;;3.00;;
67747;SDS011;54543;50.712;6.070;2024-02-15T01:07:56;5.63;;;2.95;;
67747;SDS011;54543;50.712;6.070;2024-02-15T01:10:21;5.07;;;3.20;;
67747;SDS011;54543;50.712;6.070;2024-02-15T01:12:49;4.65;;;2.67;;
67747;SDS011;54543;50.712;6.070;2024-02-15T01:15:15;5.18;;;2.60;;
67747;SDS011;54543;50.712;6.070;2024-02-15T01:17:45;5.80;;;2.53;;
67747;SDS011;54543;50.712;6.070;2024-02-15T01:20:11;4.82;;;2.38;;
67747;SDS011;54543;50.712;6.070;2024-02-15T01:22:37;4.00;;;2.40;;
67747;SDS011;54543;50.712;6.070;2024-02-15T01:25:03;5.78;;;2.53;;
67747;SDS011;54543;50.712;6.070;2024-02-15T01:27:29;3.65;;;2.28;;
67747;SDS011;54543;50.712;6.070;2024-02-15T01:29:55;3.92;;;2.30;;
67747;SDS011;54543;50.712;6.070;2024-02-15T01:32:21;3.30;;;2.30;;
67747;SDS011;54543;50.712;6.070;2024-02-15T01:34:47;6.85;;;2.80;;
67747;SDS011;54543;50.712;6.070;2024-02-15T01:37:12;3.58;;;2.50;;
67747;SDS011;54543;50.712;6.070;2024-02-15T01:39:38;4.00;;;2.50;;
67747;SDS011;54543;50.712;6.070;2024-02-15T01:42:04;3.25;;;2.22;;
67747;SDS011;54543;50.712;6.070;2024-02-15T01:44:30;4.43;;;2.40;;
67747;SDS011;54543;50.712;6.070;2024-02-15T01:46:55;8.32;;;2.40;;
67747;SDS011;54543;50.712;6.070;2024-02-15T01:49:22;4.13;;;1.92;;
67747;SDS011;54543;50.712;6.070;2024-02-15T01:51:53;5.00;;;1.95;;
67747;SDS011;54543;50.712;6.070;2024-02-15T01:54:22;4.28;;;2.40;;
67747;SDS011;54543;50.712;6.070;2024-02-15T01:56:48;5.07;;;2.00;;
67747;SDS011;54543;50.712;6.070;2024-02-15T01:59:17;4.15;;;2.13;;
67747;SDS011;54543;50.712;6.070;2024-02-15T02:01:44;6.57;;;2.10;;
67747;SDS011;54543;50.712;6.070;2024-02-15T02:04:10;3.17;;;2.00;;
67747;SDS011;54543;50.712;6.070;2024-02-15T02:06:37;3.38;;;1.80;;
67747;SDS011;54543;50.712;6.070;2024-02-15T02:09:03;2.92;;;1.88;;
67747;SDS011;54543;50.712;6.070;2024-02-15T02:11:29;3.35;;;2.00;;
67747;SDS011;54543;50.712;6.070;2024-02-15T02:13:55;2.53;;;1.67;;
67747;SDS011;54543;50.712;6.070;2024-02-15T02:16:27;4.00;;;1.75;;
67747;SDS011;54543;50.712;6.070;2024-02-15T02:18:57;3.88;;;1.70;;
67747;SDS011;54543;50.712;6.070;2024-02-15T02:21:23;3.40;;;1.80;;
67747;SDS011;54543;50.712;6.070;2024-02-15T02:23:52;3.25;;;1.90;;
67747;SDS011;54543;50.712;6.070;2024-02-15T02:26:20;2.75;;;1.70;;
67747;SDS011;54543;50.712;6.070;2024-02-15T02:28:47;4.28;;;1.98;;
67747;SDS011;54543;50.712;6.070;2024-02-15T02:31:13;2.80;;;2.15;;
67747;SDS011;54543;50.712;6.070;2024-02-15T02:33:39;2.88;;;1.63;;
67747;SDS011;54543;50.712;6.070;2024-02-15T02:36:12;5.30;;;1.90;;
67747;SDS011;54543;50.712;6.070;2024-02-15T02:38:38;3.80;;;2.15;;
67747;SDS011;54543;50.712;6.070;2024-02-15T02:41:05;5.90;;;1.90;;
67747;SDS011;54543;50.712;6.070;2024-02-15T02:43:31;1.88;;;1.58;;
67747;SDS011;54543;50.712;6.070;2024-02-15T02:45:57;2.83;;;1.50;;
67747;SDS011;54543;50.712;6.070;2024-02-15T02:48:22;3.40;;;1.80;;
67747;SDS011;54543;50.712;6.070;2024-02-15T02:50:48;2.63;;;1.40;;
67747;SDS011;54543;50.712;6.070;2024-02-15T02:53:14;3.30;;;1.50;;
67747;SDS011;54543;50.712;6.070;2024-02-15T02:55:40;3.40;;;2.00;;
67747;SDS011;54543;50.712;6.070;2024-02-15T02:58:07;2.85;;;1.55;;
67747;SDS011;54543;50.712;6.070;2024-02-15T03:00:33;3.78;;;1.60;;
67747;SDS011;54543;50.712;6.070;2024-02-15T03:02:58;3.65;;;1.75;;
67747;SDS011;54543;50.712;6.070;2024-02-15T03:05:26;2.25;;;1.35;;
67747;SDS011;54543;50.712;6.070;2024-02-15T03:07:51;3.20;;;1.60;;
67747;SDS011;54543;50.712;6.070;2024-02-15T03:10:17;1.92;;;1.33;;
67747;SDS011;54543;50.712;6.070;2024-02-15T03:12:43;2.97;;;1.65;;
67747;SDS011;54543;50.712;6.070;2024-02-15T03:15:12;2.33;;;1.40;;
67747;SDS011;54543;50.712;6.070;2024-02-15T03:17:42;2.78;;;1.60;;
67747;SDS011;54543;50.712;6.070;2024-02-15T03:20:09;2.90;;;1.42;;
67747;SDS011;54543;50.712;6.070;2024-02-15T03:22:55;2.13;;;1.25;;
67747;SDS011;54543;50.712;6.070;2024-02-15T03:25:21;2.45;;;1.50;;
67747;SDS011;54543;50.712;6.070;2024-02-15T03:27:51;2.85;;;1.20;;
67747;SDS011;54543;50.712;6.070;2024-02-15T03:30:17;2.83;;;1.40;;
67747;SDS011;54543;50.712;6.070;2024-02-15T03:32:47;2.80;;;1.50;;
67747;SDS011;54543;50.712;6.070;2024-02-15T03:35:14;1.42;;;1.20;;
67747;SDS011;54543;50.712;6.070;2024-02-15T03:37:40;3.58;;;1.40;;
67747;SDS011;54543;50.712;6.070;2024-02-15T03:40:07;3.45;;;1.17;;
67747;SDS011;54543;50.712;6.070;2024-02-15T03:42:34;3.50;;;1.35;;
67747;SDS011;54543;50.712;6.070;2024-02-15T03:45:02;1.65;;;1.08;;
67747;SDS011;54543;50.712;6.070;2024-02-15T03:47:34;2.85;;;1.48;;
67747;SDS011;54543;50.712;6.070;2024-02-15T03:50:06;1.42;;;1.13;;
67747;SDS011;54543;50.712;6.070;2024-02-15T03:52:37;2.67;;;1.15;;
67747;SDS011;54543;50.712;6.070;2024-02-15T03:55:05;2.20;;;1.13;;
67747;SDS011;54543;50.712;6.070;2024-02-15T03:57:32;4.50;;;1.30;;
67747;SDS011;54543;50.712;6.070;2024-02-15T03:59:59;2.67;;;1.30;;
67747;SDS011;54543;50.712;6.070;2024-02-15T04:02:25;1.63;;;0.90;;
67747;SDS011;54543;50.712;6.070;2024-02-15T04:04:54;2.20;;;1.30;;
67747;SDS011;54543;50.712;6.070;2024-02-15T04:07:20;2.47;;;1.20;;
67747;SDS011;54543;50.712;6.070;2024-02-15T04:09:47;1.58;;;1.40;;
67747;SDS011;54543;50.712;6.070;2024-02-15T04:12:13;2.38;;;1.17;;
67747;SDS011;54543;50.712;6.070;2024-02-15T04:14:48;6.38;;;2.05;;
67747;SDS011;54543;50.712;6.070;2024-02-15T04:17:14;3.33;;;1.50;;
67747;SDS011;54543;50.712;6.070;2024-02-15T04:19:44;3.20;;;1.48;;
67747;SDS011;54543;50.712;6.070;2024-02-15T04:22:11;2.85;;;1.40;;
67747;SDS011;54543;50.712;6.070;2024-02-15T04:24:37;3.10;;;1.40;;
67747;SDS011;54543;50.712;6.070;2024-02-15T04:27:06;5.57;;;1.80;;
67747;SDS011;54543;50.712;6.070;2024-02-15T04:29:37;2.92;;;1.50;;
67747;SDS011;54543;50.712;6.070;2024-02-15T04:32:06;4.68;;;1.67;;
67747;SDS011;54543;50.712;6.070;2024-02-15T04:34:35;5.57;;;1.30;;
67747;SDS011;54543;50.712;6.070;2024-02-15T04:37:07;2.55;;;1.27;;
67747;SDS011;54543;50.712;6.070;2024-02-15T04:39:34;2.10;;;1.10;;
67747;SDS011;54543;50.712;6.070;2024-02-15T04:42:01;2.38;;;1.48;;
67747;SDS011;54543;50.712;6.070;2024-02-15T04:44:27;3.40;;;1.50;;
67747;SDS011;54543;50.712;6.070;2024-02-15T04:46:53;3.72;;;1.75;;
67747;SDS011;54543;50.712;6.070;2024-02-15T04:49:19;2.78;;;1.65;;
67747;SDS011;54543;50.712;6.070;2024-02-15T04:51:45;4.28;;;2.28;;
67747;SDS011;54543;50.712;6.070;2024-02-15T04:54:12;3.70;;;2.22;;
67747;SDS011;54543;50.712;6.070;2024-02-15T04:56:39;5.68;;;2.65;;
67747;SDS011;54543;50.712;6.070;2024-02-15T04:59:05;6.10;;;2.70;;
67747;SDS011;54543;50.712;6.070;2024-02-15T05:01:34;5.05;;;1.90;;
67747;SDS011;54543;50.712;6.070;2024-02-15T05:04:00;4.57;;;2.55;;
67747;SDS011;54543;50.712;6.070;2024-02-15T05:06:29;3.55;;;2.30;;
67747;SDS011;54543;50.712;6.070;2024-02-15T05:08:55;3.88;;;2.50;;
67747;SDS011;54543;50.712;6.070;2024-02-15T05:11:22;5.72;;;3.05;;
67747;SDS011;54543;50.712;6.070;2024-02-15T05:13:48;5.00;;;3.45;;
67747;SDS011;54543;50.712;6.070;2024-02-15T05:16:17;4.57;;;3.00;;
67747;SDS011;54543;50.712;6.070;2024-02-15T05:18:43;11.27;;;6.65;;
67747;SDS011;54543;50.712;6.070;2024-02-15T05:21:11;7.38;;;4.38;;
67747;SDS011;54543;50.712;6.070;2024-02-15T05:23:36;9.13;;;5.50;;
67747;SDS011;54543;50.712;6.070;2024-02-15T05:26:04;12.10;;;7.00;;
67747;SDS011;54543;50.712;6.070;2024-02-15T05:28:33;8.60;;;4.60;;
67747;SDS011;54543;50.712;6.070;2024-02-15T05:31:12;9.35;;;4.10;;
67747;SDS011;54543;50.712;6.070;2024-02-15T05:33:42;5.55;;;3.50;;
67747;SDS011;54543;50.712;6.070;2024-02-15T05:36:12;4.22;;;2.55;;
67747;SDS011;54543;50.712;6.070;2024-02-15T05:38:39;8.88;;;4.28;;
67747;SDS011;54543;50.712;6.070;2024-02-15T05:41:05;6.68;;;3.70;;
67747;SDS011;54543;50.712;6.070;2024-02-15T05:43:32;5.25;;;2.80;;
67747;SDS011;54543;50.712;6.070;2024-02-15T05:46:04;3.72;;;2.20;;
67747;SDS011;54543;50.712;6.070;2024-02-15T05:48:33;4.53;;;2.50;;
67747;SDS011;54543;50.712;6.070;2024-02-15T05:51:03;3.92;;;1.88;;
67747;SDS011;54543;50.712;6.070;2024-02-15T05:53:29;5.68;;;3.33;;
67747;SDS011;54543;50.712;6.070;2024-02-15T05:55:56;4.78;;;2.20;;
67747;SDS011;54543;50.712;6.070;2024-02-15T05:58:23;6.85;;;3.70;;
67747;SDS011;54543;50.712;6.070;2024-02-15T06:00:49;10.02;;;5.25;;
67747;SDS011;54543;50.712;6.070;2024-02-15T06:03:15;8.95;;;4.13;;
67747;SDS011;54543;50.712;6.070;2024-02-15T06:05:42;8.02;;;4.32;;
67747;SDS011;54543;50.712;6.070;2024-02-15T06:08:09;12.93;;;8.35;;
67747;SDS011;54543;50.712;6.070;2024-02-15T06:10:37;17.45;;;11.48;;
67747;SDS011;54543;50.712;6.070;2024-02-15T06:13:03;12.00;;;7.25;;
67747;SDS011;54543;50.712;6.070;2024-02-15T06:15:29;11.35;;;7.03;;
67747;SDS011;54543;50.712;6.070;2024-02-15T06:17:54;14.60;;;9.05;;
67747;SDS011;54543;50.712;6.070;2024-02-15T06:20:20;18.25;;;11.20;;
67747;SDS011;54543;50.712;6.070;2024-02-15T06:22:47;11.35;;;7.43;;
67747;SDS011;54543;50.712;6.070;2024-02-15T06:25:12;15.27;;;9.23;;
67747;SDS011;54543;50.712;6.070;2024-02-15T06:27:40;9.27;;;5.78;;
67747;SDS011;54543;50.712;6.070;2024-02-15T06:30:10;13.60;;;6.50;;
67747;SDS011;54543;50.712;6.070;2024-02-15T06:32:56;23.95;;;14.38;;
67747;SDS011;54543;50.712;6.070;2024-02-15T06:35:43;33.17;;;19.63;;
67747;SDS011;54543;50.712;6.070;2024-02-15T06:38:27;50.45;;;31.08;;
67747;SDS011;54543;50.712;6.070;2024-02-15T06:41:12;37.50;;;23.45;;
67747;SDS011;54543;50.712;6.070;2024-02-15T06:43:37;30.98;;;19.77;;
67747;SDS011;54543;50.712;6.070;2024-02-15T06:46:07;51.53;;;30.67;;
67747;SDS011;54543;50.712;6.070;2024-02-15T06:48:33;34.90;;;22.35;;
67747;SDS011;54543;50.712;6.070;2024-02-15T06:50:59;47.95;;;25.77;;
67747;SDS011;54543;50.712;6.070;2024-02-15T06:53:24;22.45;;;13.77;;
67747;SDS011;54543;50.712;6.070;2024-02-15T06:55:50;19.38;;;11.35;;
67747;SDS011;54543;50.712;6.070;2024-02-15T06:58:16;21.60;;;13.48;;
67747;SDS011;54543;50.712;6.070;2024-02-15T07:00:42;16.05;;;10.00;;
67747;SDS011;54543;50.712;6.070;2024-02-15T07:03:08;17.58;;;10.73;;
67747;SDS011;54543;50.712;6.070;2024-02-15T07:05:36;12.93;;;7.40;;
67747;SDS011;54543;50.712;6.070;2024-02-15T07:08:04;7.97;;;4.88;;
67747;SDS011;54543;50.712;6.070;2024-02-15T07:10:30;9.07;;;5.05;;
67747;SDS011;54543;50.712;6.070;2024-02-15T07:12:57;6.82;;;3.78;;
67747;SDS011;54543;50.712;6.070;2024-02-15T07:15:22;5.07;;;3.10;;
67747;SDS011;54543;50.712;6.070;2024-02-15T07:17:48;4.35;;;2.85;;
67747;SDS011;54543;50.712;6.070;2024-02-15T07:20:14;6.32;;;3.75;;
67747;SDS011;54543;50.712;6.070;2024-02-15T07:22:43;4.80;;;2.72;;
67747;SDS011;54543;50.712;6.070;2024-02-15T07:25:10;6.00;;;3.45;;
67747;SDS011;54543;50.712;6.070;2024-02-15T07:27:36;4.68;;;2.80;;
67747;SDS011;54543;50.712;6.070;2024-02-15T07:30:02;6.03;;;3.80;;
67747;SDS011;54543;50.712;6.070;2024-02-15T07:32:29;4.95;;;3.13;;
67747;SDS011;54543;50.712;6.070;2024-02-15T07:34:56;5.25;;;3.10;;
67747;SDS011;54543;50.712;6.070;2024-02-15T07:37:22;5.50;;;2.63;;
67747;SDS011;54543;50.712;6.070;2024-02-15T07:39:51;5.05;;;2.03;;
67747;SDS011;54543;50.712;6.070;2024-02-15T07:42:18;4.57;;;2.08;;
67747;SDS011;54543;50.712;6.070;2024-02-15T07:44:44;2.67;;;1.73;;
67747;SDS011;54543;50.712;6.070;2024-02-15T07:47:10;4.25;;;1.95;;
67747;SDS011;54543;50.712;6.070;2024-02-15T07:49:36;2.95;;;1.52;;
67747;SDS011;54543;50.712;6.070;2024-02-15T07:52:02;3.50;;;1.58;;
67747;SDS011;54543;50.712;6.070;2024-02-15T07:54:29;3.97;;;2.00;;
67747;SDS011;54543;50.712;6.070;2024-02-15T07:56:58;3.28;;;1.52;;
67747;SDS011;54543;50.712;6.070;2024-02-15T07:59:24;4.90;;;1.70;;
67747;SDS011;54543;50.712;6.070;2024-02-15T08:01:49;4.38;;;1.63;;
67747;SDS011;54543;50.712;6.070;2024-02-15T08:04:16;3.35;;;1.40;;
67747;SDS011;54543;50.712;6.070;2024-02-15T08:06:42;2.35;;;1.30;;
67747;SDS011;54543;50.712;6.070;2024-02-15T08:09:09;3.90;;;1.30;;
67747;SDS011;54543;50.712;6.070;2024-02-15T08:11:41;2.88;;;1.10;;
67747;SDS011;54543;50.712;6.070;2024-02-15T08:14:07;1.63;;;1.08;;
67747;SDS011;54543;50.712;6.070;2024-02-15T08:16:37;2.47;;;1.40;;
67747;SDS011;54543;50.712;6.070;2024-02-15T08:19:05;2.20;;;1.52;;
67747;SDS011;54543;50.712;6.070;2024-02-15T08:21:32;2.90;;;1.67;;
67747;SDS011;54543;50.712;6.070;2024-02-15T08:24:02;4.45;;;2.42;;
67747;SDS011;54543;50.712;6.070;2024-02-15T08:29:05;4.68;;;2.88;;
67747;SDS011;54543;50.712;6.070;2024-02-15T08:31:36;3.38;;;2.22;;
67747;SDS011;54543;50.712;6.070;2024-02-15T08:34:02;6.68;;;3.75;;
67747;SDS011;54543;50.712;6.070;2024-02-15T08:36:30;7.13;;;3.10;;
67747;SDS011;54543;50.712;6.070;2024-02-15T08:38:58;5.50;;;3.72;;
67747;SDS011;54543;50.712;6.070;2024-02-15T08:41:24;5.75;;;2.60;;
67747;SDS011;54543;50.712;6.070;2024-02-15T08:43:52;5.05;;;3.13;;
67747;SDS011;54543;50.712;6.070;2024-02-15T08:46:19;5.90;;;2.70;;
67747;SDS011;54543;50.712;6.070;2024-02-15T08:48:46;4.45;;;2.55;;
67747;SDS011;54543;50.712;6.070;2024-02-15T08:51:12;8.57;;;4.60;;
67747;SDS011;54543;50.712;6.070;2024-02-15T08:53:40;7.15;;;3.80;;
67747;SDS011;54543;50.712;6.070;2024-02-15T08:56:06;6.25;;;3.35;;
67747;SDS011;54543;50.712;6.070;2024-02-15T08:58:34;5.93;;;3.38;;
67747;SDS011;54543;50.712;6.070;2024-02-15T09:01:01;7.93;;;4.00;;
67747;SDS011;54543;50.712;6.070;2024-02-15T09:03:29;4.95;;;3.00;;
67747;SDS011;54543;50.712;6.070;2024-02-15T09:05:55;5.18;;;3.08;;
67747;SDS011;54543;50.712;6.070;2024-02-15T09:08:21;4.68;;;2.53;;
67747;SDS011;54543;50.712;6.070;2024-02-15T09:10:47;7.32;;;3.83;;
67747;SDS011;54543;50.712;6.070;2024-02-15T09:13:15;7.88;;;4.47;;
67747;SDS011;54543;50.712;6.070;2024-02-15T09:15:42;5.60;;;3.72;;
67747;SDS011;54543;50.712;6.070;2024-02-15T09:18:08;6.40;;;3.30;;
67747;SDS011;54543;50.712;6.070;2024-02-15T09:20:36;5.97;;;3.40;;
67747;SDS011;54543;50.712;6.070;2024-02-15T09:23:03;4.13;;;2.70;;
67747;SDS011;54543;50.712;6.070;2024-02-15T09:25:34;4.65;;;2.67;;
67747;SDS011;54543;50.712;6.070;2024-02-15T09:28:03;5.72;;;2.85;;
67747;SDS011;54543;50.712;6.070;2024-02-15T09:30:28;5.97;;;3.22;;
67747;SDS011;54543;50.712;6.070;2024-02-15T09:32:56;4.32;;;2.85;;
67747;SDS011;54543;50.712;6.070;2024-02-15T09:35:23;4.00;;;2.00;;
67747;SDS011;54543;50.712;6.070;2024-02-15T09:37:49;5.05;;;2.53;;
67747;SDS011;54543;50.712;6.070;2024-02-15T09:40:15;4.68;;;2.85;;
67747;SDS011;54543;50.712;6.070;2024-02-15T09:42:42;3.10;;;1.95;;
67747;SDS011;54543;50.712;6.070;2024-02-15T09:45:10;4.78;;;1.75;;
67747;SDS011;54543;50.712;6.070;2024-02-15T09:47:40;4.88;;;2.45;;
67747;SDS011;54543;50.712;6.070;2024-02-15T09:50:06;4.00;;;2.08;;
67747;SDS011;54543;50.712;6.070;2024-02-15T09:52:33;4.22;;;2.50;;
67747;SDS011;54543;50.712;6.070;2024-02-15T09:55:03;3.92;;;2.05;;
67747;SDS011;54543;50.712;6.070;2024-02-15T09:57:29;3.95;;;2.33;;
67747;SDS011;54543;50.712;6.070;2024-02-15T09:59:58;5.07;;;2.85;;
67747;SDS011;54543;50.712;6.070;2024-02-15T10:02:29;4.18;;;2.10;;
67747;SDS011;54543;50.712;6.070;2024-02-15T10:04:59;4.65;;;2.90;;
67747;SDS011;54543;50.712;6.070;2024-02-15T10:07:24;3.67;;;2.30;;
67747;SDS011;54543;50.712;6.070;2024-02-15T10:09:52;5.10;;;2.88;;
67747;SDS011;54543;50.712;6.070;2024-02-15T10:12:18;5.18;;;2.88;;
67747;SDS011;54543;50.712;6.070;2024-02-15T10:14:52;4.47;;;2.60;;
67747;SDS011;54543;50.712;6.070;2024-02-15T10:17:20;4.57;;;2.42;;
67747;SDS011;54543;50.712;6.070;2024-02-15T10:20:05;4.32;;;2.55;;
67747;SDS011;54543;50.712;6.070;2024-02-15T10:22:32;4.38;;;2.20;;
67747;SDS011;54543;50.712;6.070;2024-02-15T10:25:13;4.32;;;2.28;;
67747;SDS011;54543;50.712;6.070;2024-02-15T10:27:42;5.05;;;2.90;;
67747;SDS011;54543;50.712;6.070;2024-02-15T10:30:18;4.10;;;2.50;;
67747;SDS011;54543;50.712;6.070;2024-02-15T10:32:44;4.03;;;2.13;;
67747;SDS011;54543;50.712;6.070;2024-02-15T10:35:18;8.35;;;2.97;;
67747;SDS011;54543;50.712;6.070;2024-02-15T10:37:47;4.65;;;2.30;;
67747;SDS011;54543;50.712;6.070;2024-02-15T10:40:16;4.60;;;2.85;;
67747;SDS011;54543;50.712;6.070;2024-02-15T10:42:43;4.13;;;2.40;;
67747;SDS011;54543;50.712;6.070;2024-02-15T10:45:15;6.28;;;1.83;;
67747;SDS011;54543;50.712;6.070;2024-02-15T10:47:43;3.42;;;1.67;;
67747;SDS011;54543;50.712;6.070;2024-02-15T10:50:10;3.25;;;1.50;;
67747;SDS011;54543;50.712;6.070;2024-02-15T10:52:37;5.80;;;2.35;;
67747;SDS011;54543;50.712;6.070;2024-02-15T10:55:10;2.65;;;1.83;;
67747;SDS011;54543;50.712;6.070;2024-02-15T10:57:42;4.47;;;2.10;;
67747;SDS011;54543;50.712;6.070;2024-02-15T11:00:11;4.47;;;2.72;;
67747;SDS011;54543;50.712;6.070;2024-02-15T11:02:50;3.35;;;2.25;;
67747;SDS011;54543;50.712;6.070;2024-02-15T11:05:31;4.13;;;2.15;;
67747;SDS011;54543;50.712;6.070;2024-02-15T11:08:00;5.65;;;3.47;;
67747;SDS011;54543;50.712;6.070;2024-02-15T11:10:29;4.25;;;2.40;;
67747;SDS011;54543;50.712;6.070;2024-02-15T11:12:56;3.83;;;2.13;;
67747;SDS011;54543;50.712;6.070;2024-02-15T11:18:12;4.18;;;2.35;;
67747;SDS011;54543;50.712;6.070;2024-02-15T11:23:05;3.35;;;2.38;;
67747;SDS011;54543;50.712;6.070;2024-02-15T11:25:35;2.90;;;2.22;;
67747;SDS011;54543;50.712;6.070;2024-02-15T11:30:50;8.15;;;4.15;;
67747;SDS011;54543;50.712;6.070;2024-02-15T11:33:39;7.00;;;4.10;;
67747;SDS011;54543;50.712;6.070;2024-02-15T11:36:08;7.38;;;3.75;;
67747;SDS011;54543;50.712;6.070;2024-02-15T11:38:35;6.68;;;3.03;;
67747;SDS011;54543;50.712;6.070;2024-02-15T11:41:05;7.53;;;2.85;;
67747;SDS011;54543;50.712;6.070;2024-02-15T11:46:26;4.35;;;2.95;;
67747;SDS011;54543;50.712;6.070;2024-02-15T11:48:56;4.07;;;2.55;;
67747;SDS011;54543;50.712;6.070;2024-02-15T11:51:33;4.05;;;2.45;;
67747;SDS011;54543;50.712;6.070;2024-02-15T11:54:10;3.67;;;2.20;;
67747;SDS011;54543;50.712;6.070;2024-02-15T11:59:08;4.38;;;2.80;;
67747;SDS011;54543;50.712;6.070;2024-02-15T12:01:37;5.05;;;2.60;;
67747;SDS011;54543;50.712;6.070;2024-02-15T12:04:25;4.43;;;2.60;;
67747;SDS011;54543;50.712;6.070;2024-02-15T12:07:09;3.47;;;2.10;;
67747;SDS011;54543;50.712;6.070;2024-02-15T12:09:58;2.65;;;1.75;;
67747;SDS011;54543;50.712;6.070;2024-02-15T12:12:52;4.00;;;1.77;;
67747;SDS011;54543;50.712;6.070;2024-02-15T12:15:37;4.72;;;2.75;;
67747;SDS011;54543;50.712;6.070;2024-02-15T12:18:21;4.22;;;2.33;;
67747;SDS011;54543;50.712;6.070;2024-02-15T12:21:05;2.67;;;1.95;;
67747;SDS011;54543;50.712;6.070;2024-02-15T12:26:03;3.05;;;1.92;;
67747;SDS011;54543;50.712;6.070;2024-02-15T12:28:32;4.13;;;2.20;;
67747;SDS011;54543;50.712;6.070;2024-02-15T12:31:02;3.22;;;1.92;;
67747;SDS011;54543;50.712;6.070;2024-02-15T12:33:29;3.25;;;2.13;;
67747;SDS011;54543;50.712;6.070;2024-02-15T12:36:05;3.22;;;1.85;;
67747;SDS011;54543;50.712;6.070;2024-02-15T12:38:32;2.28;;;1.60;;
67747;SDS011;54543;50.712;6.070;2024-02-15T12:40:59;3.15;;;1.73;;
67747;SDS011;54543;50.712;6.070;2024-02-15T12:43:28;2.53;;;1.50;;
67747;SDS011;54543;50.712;6.070;2024-02-15T12:45:54;4.50;;;1.90;;
67747;SDS011;54543;50.712;6.070;2024-02-15T12:48:22;3.38;;;1.83;;
67747;SDS011;54543;50.712;6.070;2024-02-15T12:50:48;3.63;;;1.52;;
67747;SDS011;54543;50.712;6.070;2024-02-15T12:53:23;1.92;;;1.27;;
67747;SDS011;54543;50.712;6.070;2024-02-15T12:55:53;1.55;;;1.15;;
67747;SDS011;54543;50.712;6.070;2024-02-15T12:58:20;3.47;;;2.38;;
67747;SDS011;54543;50.712;6.070;2024-02-15T13:00:54;2.50;;;1.50;;
67747;SDS011;54543;50.712;6.070;2024-02-15T13:03:20;2.95;;;1.42;;
67747;SDS011;54543;50.712;6.070;2024-02-15T13:05:47;2.67;;;1.98;;
67747;SDS011;54543;50.712;6.070;2024-02-15T13:08:15;2.30;;;1.50;;
67747;SDS011;54543;50.712;6.070;2024-02-15T13:10:42;2.88;;;1.60;;
67747;SDS011;54543;50.712;6.070;2024-02-15T13:13:08;2.95;;;1.90;;
67747;SDS011;54543;50.712;6.070;2024-02-15T13:15:34;2.92;;;1.83;;
67747;SDS011;54543;50.712;6.070;2024-02-15T13:18:02;2.13;;;1.40;;
67747;SDS011;54543;50.712;6.070;2024-02-15T13:20:30;2.08;;;1.40;;
67747;SDS011;54543;50.712;6.070;2024-02-15T13:23:04;2.65;;;1.55;;
67747;SDS011;54543;50.712;6.070;2024-02-15T13:25:37;2.78;;;1.63;;
67747;SDS011;54543;50.712;6.070;2024-02-15T13:28:04;2.42;;;1.73;;
67747;SDS011;54543;50.712;6.070;2024-02-15T13:30:30;4.07;;;1.73;;
67747;SDS011;54543;50.712;6.070;2024-02-15T13:32:57;2.83;;;1.70;;
67747;SDS011;54543;50.712;6.070;2024-02-15T13:35:23;2.20;;;1.10;;
67747;SDS011;54543;50.712;6.070;2024-02-15T13:37:55;2.00;;;1.20;;
67747;SDS011;54543;50.712;6.070;2024-02-15T13:40:26;1.83;;;1.00;;
67747;SDS011;54543;50.712;6.070;2024-02-15T13:42:57;2.03;;;1.20;;
67747;SDS011;54543;50.712;6.070;2024-02-15T13:48:02;2.10;;;1.42;;
67747;SDS011;54543;50.712;6.070;2024-02-15T13:50:30;2.67;;;1.27;;
67747;SDS011;54543;50.712;6.070;2024-02-15T13:52:57;2.65;;;1.30;;
67747;SDS011;54543;50.712;6.070;2024-02-15T13:55:26;1.40;;;1.20;;
67747;SDS011;54543;50.712;6.070;2024-02-15T13:57:53;1.50;;;1.15;;
67747;SDS011;54543;50.712;6.070;2024-02-15T14:00:22;1.42;;;0.90;;
67747;SDS011;54543;50.712;6.070;2024-02-15T14:05:18;1.38;;;0.90;;
67747;SDS011;54543;50.712;6.070;2024-02-15T14:07:49;2.13;;;0.98;;
67747;SDS011;54543;50.712;6.070;2024-02-15T14:10:17;1.02;;;0.80;;
67747;SDS011;54543;50.712;6.070;2024-02-15T14:12:44;2.42;;;0.90;;
67747;SDS011;54543;50.712;6.070;2024-02-15T14:15:11;1.70;;;0.90;;
67747;SDS011;54543;50.712;6.070;2024-02-15T14:17:37;1.20;;;0.70;;
67747;SDS011;54543;50.712;6.070;2024-02-15T14:20:03;1.48;;;0.98;;
67747;SDS011;54543;50.712;6.070;2024-02-15T14:22:34;1.25;;;0.77;;
67747;SDS011;54543;50.712;6.070;2024-02-15T14:24:59;2.20;;;1.02;;
67747;SDS011;54543;50.712;6.070;2024-02-15T14:27:27;1.05;;;0.73;;
67747;SDS011;54543;50.712;6.070;2024-02-15T14:29:52;2.85;;;1.00;;
67747;SDS011;54543;50.712;6.070;2024-02-15T14:32:36;2.30;;;1.27;;
67747;SDS011;54543;50.712;6.070;2024-02-15T14:35:21;1.15;;;0.82;;
67747;SDS011;54543;50.712;6.070;2024-02-15T14:37:47;2.03;;;1.30;;
67747;SDS011;54543;50.712;6.070;2024-02-15T14:40:12;2.58;;;1.50;;
67747;SDS011;54543;50.712;6.070;2024-02-15T14:42:40;2.67;;;1.67;;
67747;SDS011;54543;50.712;6.070;2024-02-15T14:45:09;1.98;;;1.20;;
67747;SDS011;54543;50.712;6.070;2024-02-15T14:47:37;1.35;;;1.10;;
67747;SDS011;54543;50.712;6.070;2024-02-15T14:50:03;1.83;;;1.08;;
67747;SDS011;54543;50.712;6.070;2024-02-15T14:52:33;1.30;;;0.98;;
67747;SDS011;54543;50.712;6.070;2024-02-15T14:55:05;2.22;;;1.50;;
67747;SDS011;54543;50.712;6.070;2024-02-15T14:57:33;1.42;;;1.10;;
67747;SDS011;54543;50.712;6.070;2024-02-15T14:59:59;1.17;;;0.95;;
67747;SDS011;54543;50.712;6.070;2024-02-15T15:02:25;2.28;;;0.93;;
67747;SDS011;54543;50.712;6.070;2024-02-15T15:04:51;2.10;;;1.15;;
67747;SDS011;54543;50.712;6.070;2024-02-15T15:07:42;1.13;;;1.00;;
67747;SDS011;54543;50.712;6.070;2024-02-15T15:10:27;4.78;;;2.17;;
67747;SDS011;54543;50.712;6.070;2024-02-15T15:13:11;2.95;;;1.25;;
67747;SDS011;54543;50.712;6.070;2024-02-15T15:15:38;2.00;;;1.15;;
67747;SDS011;54543;50.712;6.070;2024-02-15T15:18:05;1.38;;;1.00;;